createdAt,value
2023-02-11T00:00:41.215Z,2.29
2023-02-11T00:03:08.528Z,2.32
2023-02-11T00:05:35.370Z,2.32
2023-02-11T00:08:02.117Z,2.33
2023-02-11T00:10:28.861Z,2.34
2023-02-11T00:12:56.208Z,2.35
2023-02-11T00:15:23.004Z,2.34
2023-02-11T00:17:49.665Z,2.34
2023-02-11T00:20:16.491Z,2.32
2023-02-11T00:22:43.861Z,2.31
2023-02-11T00:25:10.554Z,2.29
2023-02-11T00:27:37.985Z,2.28
2023-02-11T00:30:06.265Z,2.28
2023-02-11T00:32:33.133Z,2.28
2023-02-11T00:34:59.703Z,2.26
2023-02-11T00:37:26.349Z,2.20
2023-02-11T00:39:53.119Z,2.12
2023-02-11T00:42:19.883Z,2.04
2023-02-11T00:44:46.608Z,1.97
2023-02-11T00:47:16.870Z,1.89
2023-02-11T00:49:44.194Z,1.82
2023-02-11T00:52:10.869Z,1.76
2023-02-11T00:54:37.517Z,1.71
2023-02-11T00:57:04.583Z,1.68
2023-02-11T00:59:31.400Z,1.64
2023-02-11T01:01:59.502Z,1.60
2023-02-11T01:04:27.436Z,1.57
2023-02-11T01:06:54.144Z,1.55
2023-02-11T01:09:21.453Z,1.55
2023-02-11T01:11:48.274Z,1.51
2023-02-11T01:14:15.560Z,1.46
2023-02-11T01:16:43.220Z,1.42
2023-02-11T01:19:09.940Z,1.38
2023-02-11T01:21:36.801Z,1.34
2023-02-11T01:24:03.649Z,1.32
2023-02-11T01:26:30.322Z,1.29
2023-02-11T01:29:00.123Z,1.25
2023-02-11T01:31:27.917Z,1.24
2023-02-11T01:33:54.693Z,1.24
2023-02-11T01:36:21.346Z,1.24
2023-02-11T01:38:50.005Z,1.23
2023-02-11T01:41:20.284Z,1.22
2023-02-11T01:43:49.551Z,1.22
2023-02-11T01:46:37.832Z,1.19
2023-02-11T01:49:09.389Z,1.18
2023-02-11T01:51:46.542Z,1.16
2023-02-11T01:54:35.433Z,1.13
2023-02-11T01:57:23.474Z,1.11
2023-02-11T02:00:18.052Z,1.07
2023-02-11T02:02:54.882Z,1.03
2023-02-11T02:05:28.175Z,1.00
2023-02-11T02:08:10.163Z,0.97
2023-02-11T02:10:40.423Z,0.96
2023-02-11T02:13:07.232Z,0.97
2023-02-11T02:15:36.358Z,0.98
2023-02-11T02:18:23.072Z,0.99
2023-02-11T02:21:17.869Z,0.95
2023-02-11T02:24:27.681Z,0.92
2023-02-11T02:27:21.301Z,0.82
2023-02-11T02:30:25.215Z,0.74
2023-02-11T02:33:16.711Z,0.71
2023-02-11T02:36:13.902Z,0.71
2023-02-11T02:38:51.830Z,0.68
2023-02-11T02:41:27.090Z,0.67
2023-02-11T02:43:54.704Z,0.65
2023-02-11T02:46:27.994Z,0.62
2023-02-11T02:48:56.726Z,0.58
2023-02-11T02:51:38.680Z,0.53
2023-02-11T02:54:23.557Z,0.51
2023-02-11T02:57:08.907Z,0.48
2023-02-11T02:59:38.240Z,0.45
2023-02-11T03:02:23.226Z,0.45
2023-02-11T03:05:05.206Z,0.42
2023-02-11T03:07:45.398Z,0.39
2023-02-11T03:10:41.352Z,0.36
2023-02-11T03:13:08.810Z,0.33
2023-02-11T03:15:41.924Z,0.32
2023-02-11T03:18:13.196Z,0.29
2023-02-11T03:20:43.554Z,0.26
2023-02-11T03:23:22.573Z,0.23
2023-02-11T03:25:55.973Z,0.23
2023-02-11T03:28:42.952Z,0.20
2023-02-11T03:31:17.087Z,0.19
2023-02-11T03:33:52.827Z,0.16
2023-02-11T03:36:27.601Z,0.13
2023-02-11T03:38:58.690Z,0.14
2023-02-11T03:41:26.192Z,0.16
2023-02-11T03:43:56.968Z,0.15
2023-02-11T03:46:38.544Z,0.13
2023-02-11T03:49:12.487Z,0.09
2023-02-11T03:51:40.440Z,0.06
2023-02-11T03:54:14.242Z,0.04
2023-02-11T03:56:54.317Z,0.01
2023-02-11T03:59:21.028Z,-0.00
2023-02-11T04:01:47.822Z,-0.02
2023-02-11T04:04:15.091Z,-0.04
2023-02-11T04:06:41.896Z,-0.06
2023-02-11T04:09:09.021Z,-0.07
2023-02-11T04:11:35.741Z,-0.09
2023-02-11T04:14:02.418Z,-0.08
2023-02-11T04:16:31.110Z,-0.07
2023-02-11T04:18:58.059Z,-0.09
2023-02-11T04:21:24.751Z,-0.10
2023-02-11T04:23:51.418Z,-0.11
2023-02-11T04:26:18.090Z,-0.12
2023-02-11T04:28:44.808Z,-0.13
2023-02-11T04:31:12.205Z,-0.16
2023-02-11T04:33:39.125Z,-0.20
2023-02-11T04:36:05.886Z,-0.22
2023-02-11T04:38:32.625Z,-0.23
2023-02-11T04:41:00.625Z,-0.26
2023-02-11T04:43:27.651Z,-0.26
2023-02-11T04:45:58.858Z,-0.25
2023-02-11T04:48:26.356Z,-0.22
2023-02-11T04:50:53.080Z,-0.22
2023-02-11T04:53:20.118Z,-0.22
2023-02-11T04:55:50.937Z,-0.24
2023-02-11T04:58:19.780Z,-0.26
2023-02-11T05:00:47.111Z,-0.30
2023-02-11T05:03:14.113Z,-0.32
2023-02-11T05:05:42.693Z,-0.36
2023-02-11T05:08:10.925Z,-0.39
2023-02-11T05:10:37.968Z,-0.42
2023-02-11T05:13:05.061Z,-0.43
2023-02-11T05:15:31.981Z,-0.42
2023-02-11T05:17:58.626Z,-0.42
2023-02-11T05:20:25.780Z,-0.44
2023-02-11T05:22:52.652Z,-0.46
2023-02-11T05:25:20.570Z,-0.45
2023-02-11T05:27:47.425Z,-0.42
2023-02-11T05:30:14.488Z,-0.40
2023-02-11T05:32:41.331Z,-0.38
2023-02-11T05:35:09.427Z,-0.37
2023-02-11T05:37:36.244Z,-0.40
2023-02-11T05:40:02.940Z,-0.43
2023-02-11T05:42:29.598Z,-0.44
2023-02-11T05:44:56.298Z,-0.46
2023-02-11T05:47:23.080Z,-0.47
2023-02-11T05:49:51.483Z,-0.49
2023-02-11T05:52:18.108Z,-0.51
2023-02-11T05:54:44.775Z,-0.54
2023-02-11T05:57:11.774Z,-0.59
2023-02-11T05:59:38.913Z,-0.63
2023-02-11T06:02:05.714Z,-0.65
2023-02-11T06:04:32.365Z,-0.67
2023-02-11T06:06:59.095Z,-0.67
2023-02-11T06:09:26.563Z,-0.67
2023-02-11T06:11:53.421Z,-0.67
2023-02-11T06:14:20.251Z,-0.69
2023-02-11T06:16:46.925Z,-0.72
2023-02-11T06:19:13.890Z,-0.73
2023-02-11T06:21:44.129Z,-0.75
2023-02-11T06:24:12.025Z,-0.76
2023-02-11T06:26:40.312Z,-0.77
2023-02-11T06:29:07.253Z,-0.77
2023-02-11T06:31:33.953Z,-0.74
2023-02-11T06:34:01.088Z,-0.70
2023-02-11T06:36:27.816Z,-0.68
2023-02-11T06:38:55.201Z,-0.66
2023-02-11T06:41:22.067Z,-0.62
2023-02-11T06:43:49.113Z,-0.60
2023-02-11T06:46:16.324Z,-0.59
2023-02-11T06:48:44.818Z,-0.57
2023-02-11T06:51:14.071Z,-0.52
2023-02-11T06:53:49.649Z,-0.48
2023-02-11T06:56:19.916Z,-0.44
2023-02-11T06:58:47.911Z,-0.40
2023-02-11T07:01:16.549Z,-0.37
2023-02-11T07:03:47.331Z,-0.34
2023-02-11T07:06:21.342Z,-0.30
2023-02-11T07:08:48.425Z,-0.26
2023-02-11T07:11:21.174Z,-0.24
2023-02-11T07:13:48.282Z,-0.22
2023-02-11T07:16:16.652Z,-0.18
2023-02-11T07:18:44.773Z,-0.12
2023-02-11T07:21:13.851Z,-0.06
2023-02-11T07:23:41.669Z,-0.01
2023-02-11T07:26:11.249Z,0.03
2023-02-11T07:28:39.186Z,0.10
2023-02-11T07:31:27.382Z,0.16
2023-02-11T07:33:56.034Z,0.25
2023-02-11T07:36:23.575Z,0.37
2023-02-11T07:38:50.653Z,0.45
2023-02-11T07:41:20.587Z,0.52
2023-02-11T07:43:48.095Z,0.60
2023-02-11T07:46:21.379Z,0.68
2023-02-11T07:48:48.698Z,0.79
2023-02-11T07:51:18.385Z,0.91
2023-02-11T07:53:45.502Z,1.05
2023-02-11T07:56:13.634Z,1.18
2023-02-11T07:58:42.301Z,1.32
2023-02-11T08:01:15.675Z,1.46
2023-02-11T08:03:43.206Z,1.59
2023-02-11T08:06:15.715Z,1.70
2023-02-11T08:08:43.526Z,1.82
2023-02-11T08:11:15.112Z,1.94
2023-02-11T08:13:42.747Z,2.06
2023-02-11T08:16:16.993Z,2.16
2023-02-11T08:18:43.692Z,2.26
2023-02-11T08:21:11.163Z,2.36
2023-02-11T08:23:39.354Z,2.46
2023-02-11T08:26:08.906Z,2.56
2023-02-11T08:28:40.421Z,2.65
2023-02-11T08:31:09.055Z,2.72
2023-02-11T08:33:36.406Z,2.80
2023-02-11T08:36:09.907Z,2.86
2023-02-11T08:38:36.753Z,2.93
2023-02-11T08:41:03.359Z,3.00
2023-02-11T08:43:30.124Z,3.06
2023-02-11T08:45:56.845Z,3.13
2023-02-11T08:48:23.520Z,3.20
2023-02-11T08:50:50.193Z,3.26
2023-02-11T08:53:16.934Z,3.36
2023-02-11T08:55:54.693Z,3.48
2023-02-11T08:58:22.452Z,3.60
2023-02-11T09:00:50.570Z,3.70
2023-02-11T09:03:17.923Z,3.80
2023-02-11T09:05:50.214Z,3.91
2023-02-11T09:08:17.149Z,4.02
2023-02-11T09:10:43.816Z,4.12
2023-02-11T09:13:10.707Z,4.19
2023-02-11T09:15:37.506Z,4.24
2023-02-11T09:18:05.245Z,4.31
2023-02-11T09:20:32.340Z,4.38
2023-02-11T09:22:59.672Z,4.47
2023-02-11T09:25:26.692Z,4.56
2023-02-11T09:27:53.925Z,4.61
2023-02-11T09:30:21.459Z,4.71
2023-02-11T09:32:48.740Z,4.84
2023-02-11T09:35:15.454Z,4.95
2023-02-11T09:37:42.116Z,5.03
2023-02-11T09:40:10.078Z,5.14
2023-02-11T09:43:03.758Z,5.22
2023-02-11T09:45:31.423Z,5.29
2023-02-11T09:48:05.838Z,5.35
2023-02-11T09:50:36.457Z,5.43
2023-02-11T09:53:20.533Z,5.48
2023-02-11T09:55:55.785Z,5.53
2023-02-11T09:58:27.511Z,5.57
2023-02-11T10:00:54.170Z,5.60
2023-02-11T10:03:27.043Z,5.64
2023-02-11T10:05:53.643Z,5.66
2023-02-11T10:08:30.790Z,5.64
2023-02-11T10:11:08.781Z,5.62
2023-02-11T10:14:01.516Z,5.63
2023-02-11T10:16:46.498Z,5.70
2023-02-11T10:19:25.343Z,5.84
2023-02-11T10:21:58.906Z,5.96
2023-02-11T10:24:28.876Z,6.05
2023-02-11T10:26:55.842Z,6.07
2023-02-11T10:29:35.663Z,6.10
2023-02-11T10:32:07.587Z,6.13
2023-02-11T10:34:40.400Z,6.18
2023-02-11T10:37:07.324Z,6.20
2023-02-11T10:39:33.994Z,6.25
2023-02-11T10:42:07.802Z,6.28
2023-02-11T10:44:41.622Z,6.30
2023-02-11T10:47:19.053Z,6.28
2023-02-11T10:49:49.067Z,6.23
2023-02-11T10:52:24.312Z,6.18
2023-02-11T10:54:56.158Z,6.15
2023-02-11T10:57:26.599Z,6.10
2023-02-11T10:59:59.388Z,6.07
2023-02-11T11:02:34.737Z,6.10
2023-02-11T11:05:16.508Z,6.21
2023-02-11T11:07:57.340Z,6.32
2023-02-11T11:10:45.083Z,6.46
2023-02-11T11:13:43.496Z,6.62
2023-02-11T11:16:13.387Z,6.82
2023-02-11T11:18:44.001Z,6.99
2023-02-11T11:21:26.440Z,7.18
2023-02-11T11:23:59.095Z,7.41
2023-02-11T11:26:29.698Z,7.59
2023-02-11T11:29:01.770Z,7.78
2023-02-11T11:31:33.474Z,7.95
2023-02-11T11:34:03.991Z,8.06
2023-02-11T11:36:37.868Z,8.08
2023-02-11T11:39:22.840Z,8.07
2023-02-11T11:41:54.901Z,8.03
2023-02-11T11:44:26.468Z,7.97
2023-02-11T11:47:11.284Z,7.89
2023-02-11T11:49:43.368Z,7.82
2023-02-11T11:52:19.770Z,7.75
2023-02-11T11:54:55.655Z,7.67
2023-02-11T11:57:28.837Z,7.66
2023-02-11T11:59:58.008Z,7.68
2023-02-11T12:02:47.909Z,7.73
2023-02-11T12:05:29.490Z,7.80
2023-02-11T12:08:24.650Z,7.91
2023-02-11T12:10:58.675Z,8.04
2023-02-11T12:13:46.653Z,8.13
2023-02-11T12:16:28.919Z,8.24
2023-02-11T12:19:07.866Z,8.34
2023-02-11T12:21:41.881Z,8.35
2023-02-11T12:24:17.185Z,8.34
2023-02-11T12:26:50.166Z,8.32
2023-02-11T12:29:35.455Z,8.31
2023-02-11T12:32:29.280Z,8.29
2023-02-11T12:35:35.206Z,8.23
2023-02-11T12:38:18.893Z,8.13
2023-02-11T12:41:04.957Z,8.13
2023-02-11T12:43:38.623Z,8.16
2023-02-11T12:46:14.620Z,8.17
2023-02-11T12:48:59.394Z,8.25
2023-02-11T12:51:25.982Z,8.31
2023-02-11T12:54:11.125Z,8.40
2023-02-11T12:57:05.245Z,8.48
2023-02-11T12:59:41.472Z,8.60
2023-02-11T13:02:54.622Z,8.72
2023-02-11T13:05:37.723Z,8.85
2023-02-11T13:08:37.438Z,8.91
2023-02-11T13:11:14.417Z,8.92
2023-02-11T13:13:52.677Z,8.90
2023-02-11T13:16:29.673Z,8.91
2023-02-11T13:19:01.473Z,8.91
2023-02-11T13:21:36.813Z,8.91
2023-02-11T13:24:26.829Z,8.91
2023-02-11T13:27:15.202Z,8.93
2023-02-11T13:30:21.791Z,8.97
2023-02-11T13:32:54.605Z,9.03
2023-02-11T13:35:40.139Z,9.07
2023-02-11T13:38:22.839Z,9.12
2023-02-11T13:41:25.135Z,9.17
2023-02-11T13:44:19.453Z,9.23
2023-02-11T13:46:59.801Z,9.28
2023-02-11T13:49:31.325Z,9.34
2023-02-11T13:51:59.831Z,9.40
2023-02-11T13:54:49.176Z,9.45
2023-02-11T13:57:22.073Z,9.50
2023-02-11T14:00:00.624Z,9.54
2023-02-11T14:02:54.828Z,9.57
2023-02-11T14:05:49.135Z,9.59
2023-02-11T14:08:39.350Z,9.57
2023-02-11T14:11:12.980Z,9.58
2023-02-11T14:13:48.898Z,9.59
2023-02-11T14:16:31.648Z,9.62
2023-02-11T14:19:03.831Z,9.67
2023-02-11T14:21:34.952Z,9.71
2023-02-11T14:24:02.924Z,9.73
2023-02-11T14:26:56.850Z,9.73
2023-02-11T14:29:42.550Z,9.76
2023-02-11T14:32:41.173Z,9.80
2023-02-11T14:35:39.252Z,9.84
2023-02-11T14:38:24.929Z,9.86
2023-02-11T14:41:19.957Z,9.86
2023-02-11T14:43:57.992Z,9.86
2023-02-11T14:46:27.943Z,9.88
2023-02-11T14:48:58.649Z,9.88
2023-02-11T14:51:32.024Z,9.90
2023-02-11T14:54:24.159Z,9.89
2023-02-11T14:57:24.874Z,9.88
2023-02-11T15:00:05.031Z,9.84
2023-02-11T15:02:37.796Z,9.80
2023-02-11T15:05:22.794Z,9.76
2023-02-11T15:08:02.453Z,9.74
2023-02-11T15:10:35.515Z,9.72
2023-02-11T15:13:04.022Z,9.71
2023-02-11T15:15:32.582Z,9.68
2023-02-11T15:18:03.472Z,9.67
2023-02-11T15:20:33.768Z,9.64
2023-02-11T15:23:09.446Z,9.60
2023-02-11T15:25:44.218Z,9.57
2023-02-11T15:28:22.873Z,9.54
2023-02-11T15:30:56.903Z,9.49
2023-02-11T15:33:25.540Z,9.46
2023-02-11T15:35:52.398Z,9.43
2023-02-11T15:38:19.618Z,9.40
2023-02-11T15:41:01.045Z,9.36
2023-02-11T15:43:48.972Z,9.33
2023-02-11T15:46:19.078Z,9.27
2023-02-11T15:48:55.518Z,9.23
2023-02-11T15:51:35.582Z,9.19
2023-02-11T15:54:05.815Z,9.15
2023-02-11T15:56:43.520Z,9.11
2023-02-11T15:59:38.406Z,9.07
2023-02-11T16:02:09.401Z,9.02
2023-02-11T16:04:37.145Z,8.99
2023-02-11T16:07:05.255Z,8.94
2023-02-11T16:09:35.014Z,8.89
2023-02-11T16:12:07.694Z,8.84
2023-02-11T16:14:39.384Z,8.75
2023-02-11T16:17:18.790Z,8.70
2023-02-11T16:19:48.679Z,8.61
2023-02-11T16:22:28.258Z,8.55
2023-02-11T16:24:58.311Z,8.49
2023-02-11T16:27:41.900Z,8.44
2023-02-11T16:30:34.422Z,8.39
2023-02-11T16:33:04.189Z,8.32
2023-02-11T16:35:31.435Z,8.26
2023-02-11T16:37:58.207Z,8.22
2023-02-11T16:40:24.832Z,8.17
2023-02-11T16:42:53.359Z,8.14
2023-02-11T16:45:20.912Z,8.10
2023-02-11T16:47:47.860Z,8.05
2023-02-11T16:50:25.767Z,8.01
2023-02-11T16:52:53.023Z,7.95
2023-02-11T16:55:22.067Z,7.90
2023-02-11T16:57:49.206Z,7.85
2023-02-11T17:00:17.308Z,7.80
2023-02-11T17:02:44.140Z,7.74
2023-02-11T17:05:20.839Z,7.66
2023-02-11T17:07:47.673Z,7.60
2023-02-11T17:10:24.384Z,7.54
2023-02-11T17:12:53.508Z,7.48
2023-02-11T17:15:20.546Z,7.40
2023-02-11T17:17:48.175Z,7.32
2023-02-11T17:20:15.505Z,7.23
2023-02-11T17:22:42.360Z,7.13
2023-02-11T17:25:12.665Z,7.02
2023-02-11T17:27:39.507Z,6.92
2023-02-11T17:30:07.437Z,6.83
2023-02-11T17:32:34.157Z,6.72
2023-02-11T17:35:00.778Z,6.61
2023-02-11T17:37:28.765Z,6.50
2023-02-11T17:42:40.250Z,6.33
2023-02-11T17:45:08.839Z,6.27
2023-02-11T17:47:36.068Z,6.20
2023-02-11T17:50:03.199Z,6.14
2023-02-11T17:52:30.028Z,6.09
2023-02-11T17:54:57.988Z,6.04
2023-02-11T17:57:24.757Z,6.00
2023-02-11T17:59:51.563Z,5.95
2023-02-11T18:02:18.314Z,5.92
2023-02-11T18:04:45.053Z,5.90
2023-02-11T18:07:11.777Z,5.87
2023-02-11T18:09:41.786Z,5.84
2023-02-11T18:12:08.993Z,5.79
2023-02-11T18:14:35.680Z,5.75
2023-02-11T18:17:02.332Z,5.72
2023-02-11T18:19:30.650Z,5.67
2023-02-11T18:22:00.831Z,5.62
2023-02-11T18:24:27.750Z,5.57
2023-02-11T18:26:54.383Z,5.51
2023-02-11T18:29:21.052Z,5.45
2023-02-11T18:31:47.733Z,5.41
2023-02-11T18:34:15.929Z,5.37
2023-02-11T18:36:42.688Z,5.32
2023-02-11T18:39:09.525Z,5.28
2023-02-11T18:41:36.297Z,5.24
2023-02-11T18:44:05.555Z,5.21
2023-02-11T18:46:32.417Z,5.18
2023-02-11T18:48:59.087Z,5.15
2023-02-11T18:51:25.797Z,5.12
2023-02-11T18:53:53.085Z,5.09
2023-02-11T18:56:22.976Z,5.04
2023-02-11T18:58:51.872Z,5.01
2023-02-11T19:01:25.714Z,4.98
2023-02-11T19:03:53.773Z,4.96
2023-02-11T19:06:27.418Z,4.95
2023-02-11T19:08:58.257Z,4.93
2023-02-11T19:11:45.696Z,4.90
2023-02-11T19:14:14.086Z,4.86
2023-02-11T19:16:42.938Z,4.81
2023-02-11T19:19:10.238Z,4.75
2023-02-11T19:21:37.056Z,4.70
2023-02-11T19:24:07.992Z,4.66
2023-02-11T19:26:35.295Z,4.62
2023-02-11T19:29:02.326Z,4.58
2023-02-11T19:31:32.377Z,4.55
2023-02-11T19:34:00.303Z,4.52
2023-02-11T19:36:29.908Z,4.50
2023-02-11T19:38:59.938Z,4.50
2023-02-11T19:41:27.702Z,4.50
2023-02-11T19:43:56.747Z,4.49
2023-02-11T19:46:26.078Z,4.49
2023-02-11T19:48:53.270Z,4.48
2023-02-11T19:51:21.511Z,4.47
2023-02-11T19:53:48.972Z,4.44
2023-02-11T19:56:15.980Z,4.42
2023-02-11T19:58:43.828Z,4.41
2023-02-11T20:01:17.218Z,4.40
2023-02-11T20:03:44.145Z,4.39
2023-02-11T20:06:17.185Z,4.38
2023-02-11T20:08:44.775Z,4.39
2023-02-11T20:11:14.287Z,4.38
2023-02-11T20:13:41.731Z,4.35
2023-02-11T20:16:12.499Z,4.32
2023-02-11T20:18:40.748Z,4.27
2023-02-11T20:21:13.134Z,4.23
2023-02-11T20:23:40.810Z,4.19
2023-02-11T20:26:15.928Z,4.16
2023-02-11T20:28:43.170Z,4.10
2023-02-11T20:31:11.254Z,4.06
2023-02-11T20:33:38.686Z,4.05
2023-02-11T20:36:08.784Z,4.05
2023-02-11T20:38:35.740Z,4.05
2023-02-11T20:41:09.767Z,4.06
2023-02-11T20:43:38.073Z,4.04
2023-02-11T20:46:06.211Z,4.00
2023-02-11T20:48:34.211Z,3.97
2023-02-11T20:51:29.868Z,3.94
2023-02-11T20:53:57.369Z,3.91
2023-02-11T20:56:29.869Z,3.90
2023-02-11T20:58:58.502Z,3.88
2023-02-11T21:01:40.825Z,3.86
2023-02-11T21:04:12.424Z,3.84
2023-02-11T21:06:42.755Z,3.84
2023-02-11T21:09:13.572Z,3.83
2023-02-11T21:11:41.069Z,3.82
2023-02-11T21:14:10.057Z,3.78
2023-02-11T21:16:37.156Z,3.77
2023-02-11T21:19:04.328Z,3.76
2023-02-11T21:21:32.094Z,3.75
2023-02-11T21:23:58.991Z,3.74
2023-02-11T21:26:25.912Z,3.73
2023-02-11T21:28:55.080Z,3.70
2023-02-11T21:31:28.647Z,3.67
2023-02-11T21:33:56.715Z,3.63
2023-02-11T21:36:23.986Z,3.63
2023-02-11T21:38:52.580Z,3.62
2023-02-11T21:41:24.975Z,3.61
2023-02-11T21:43:52.255Z,3.62
2023-02-11T21:46:20.036Z,3.63
2023-02-11T21:48:47.903Z,3.64
2023-02-11T21:51:18.027Z,3.65
2023-02-11T21:53:44.878Z,3.65
2023-02-11T21:56:14.871Z,3.65
2023-02-11T21:58:41.691Z,3.66
2023-02-11T22:01:16.056Z,3.63
2023-02-11T22:03:43.590Z,3.62
2023-02-11T22:06:13.164Z,3.59
2023-02-11T22:08:40.428Z,3.57
2023-02-11T22:11:10.962Z,3.55
2023-02-11T22:13:38.199Z,3.52
2023-02-11T22:16:09.780Z,3.49
2023-02-11T22:18:37.132Z,3.45
2023-02-11T22:21:09.677Z,3.43
2023-02-11T22:23:37.711Z,3.42
2023-02-11T22:26:07.561Z,3.40
2023-02-11T22:28:35.598Z,3.38
2023-02-11T22:31:02.911Z,3.37
2023-02-11T22:33:29.653Z,3.36
2023-02-11T22:36:00.411Z,3.35
2023-02-11T22:38:29.109Z,3.32
2023-02-11T22:40:55.863Z,3.28
2023-02-11T22:43:22.526Z,3.26
2023-02-11T22:45:50.015Z,3.26
2023-02-11T22:48:17.362Z,3.23
2023-02-11T22:50:44.098Z,3.20
2023-02-11T22:53:10.730Z,3.17
2023-02-11T22:55:38.849Z,3.17
2023-02-11T22:58:06.090Z,3.18
2023-02-11T23:00:37.919Z,3.17
2023-02-11T23:03:06.124Z,3.18
2023-02-11T23:05:41.226Z,3.18
2023-02-11T23:08:10.405Z,3.18
2023-02-11T23:10:38.700Z,3.17
2023-02-11T23:13:07.533Z,3.13
2023-02-11T23:15:34.482Z,3.11
2023-02-11T23:18:01.252Z,3.06
2023-02-11T23:20:27.894Z,3.00
2023-02-11T23:22:54.614Z,2.94
2023-02-11T23:25:21.310Z,2.89
2023-02-11T23:27:47.979Z,2.87
2023-02-11T23:30:14.824Z,2.87
2023-02-11T23:32:41.533Z,2.86
2023-02-11T23:35:08.287Z,2.84
2023-02-11T23:37:34.924Z,2.83
2023-02-11T23:40:01.580Z,2.82
2023-02-11T23:42:29.245Z,2.80
2023-02-11T23:44:55.991Z,2.80
2023-02-11T23:47:22.730Z,2.81
2023-02-11T23:49:49.429Z,2.83
2023-02-11T23:52:16.237Z,2.83
2023-02-11T23:54:43.541Z,2.82
2023-02-11T23:57:10.277Z,2.81
2023-02-11T23:59:36.948Z,2.80
